sensor_id;sensor_type;location;lat;lon;timestamp;pressure;altitude;pressure_sealevel;temperature;humidity
61961;BME280;47923;42.506;24.192;2023-02-16T00:00:57;96775.59;;;-5.32;84.76
61961;BME280;47923;42.506;24.192;2023-02-16T00:03:23;96761.44;;;-5.61;84.94
61961;BME280;47923;42.506;24.192;2023-02-16T00:05:49;96782.31;;;-5.48;84.83
61961;BME280;47923;42.506;24.192;2023-02-16T00:08:15;96769.00;;;-5.53;84.37
61961;BME280;47923;42.506;24.192;2023-02-16T00:10:41;96783.47;;;-5.44;84.06
61961;BME280;47923;42.506;24.192;2023-02-16T00:13:27;96671.34;;;-6.05;83.92
61961;BME280;47923;42.506;24.192;2023-02-16T00:16:20;96761.81;;;-5.58;83.21
61961;BME280;47923;42.506;24.192;2023-02-16T00:18:46;96780.13;;;-5.51;82.86
61961;BME280;47923;42.506;24.192;2023-02-16T00:21:13;96777.19;;;-5.43;82.12
61961;BME280;47923;42.506;24.192;2023-02-16T00:23:38;96783.03;;;-5.41;83.25
61961;BME280;47923;42.506;24.192;2023-02-16T00:26:05;96373.53;;;-8.04;82.90
61961;BME280;47923;42.506;24.192;2023-02-16T00:28:30;96781.84;;;-5.45;83.17
61961;BME280;47923;42.506;24.192;2023-02-16T00:30:56;96784.50;;;-5.45;83.35
61961;BME280;47923;42.506;24.192;2023-02-16T00:33:21;96784.88;;;-5.41;83.68
61961;BME280;47923;42.506;24.192;2023-02-16T00:35:47;96779.69;;;-5.48;83.26
61961;BME280;47923;42.506;24.192;2023-02-16T00:38:13;96691.69;;;-6.12;84.32
61961;BME280;47923;42.506;24.192;2023-02-16T00:40:39;96558.63;;;-7.10;84.52
61961;BME280;47923;42.506;24.192;2023-02-16T00:43:06;96780.97;;;-5.69;84.58
61961;BME280;47923;42.506;24.192;2023-02-16T00:45:36;96761.28;;;-5.66;84.15
61961;BME280;47923;42.506;24.192;2023-02-16T00:48:01;96709.72;;;-5.97;83.61
61961;BME280;47923;42.506;24.192;2023-02-16T00:50:29;96774.03;;;-5.63;84.76
61961;BME280;47923;42.506;24.192;2023-02-16T00:52:55;96778.50;;;-5.64;84.86
61961;BME280;47923;42.506;24.192;2023-02-16T00:55:26;96772.44;;;-5.64;84.84
61961;BME280;47923;42.506;24.192;2023-02-16T00:58:04;96761.28;;;-5.66;84.22
61961;BME280;47923;42.506;24.192;2023-02-16T01:01:14;96760.50;;;-5.67;82.90
61961;BME280;47923;42.506;24.192;2023-02-16T01:03:26;96760.28;;;-5.65;82.19
61961;BME280;47923;42.506;24.192;2023-02-16T01:05:52;96754.19;;;-5.66;81.75
61961;BME280;47923;42.506;24.192;2023-02-16T01:08:37;96585.97;;;-6.81;82.85
61961;BME280;47923;42.506;24.192;2023-02-16T01:11:21;96756.66;;;-5.82;83.41
61961;BME280;47923;42.506;24.192;2023-02-16T01:13:49;96756.75;;;-5.89;83.43
61961;BME280;47923;42.506;24.192;2023-02-16T01:16:19;96750.13;;;-5.92;84.38
61961;BME280;47923;42.506;24.192;2023-02-16T01:18:45;96735.31;;;-6.04;84.10
61961;BME280;47923;42.506;24.192;2023-02-16T01:21:11;96746.13;;;-5.94;83.94
61961;BME280;47923;42.506;24.192;2023-02-16T01:23:37;96749.66;;;-5.89;84.55
61961;BME280;47923;42.506;24.192;2023-02-16T01:26:05;96697.41;;;-6.15;85.41
61961;BME280;47923;42.506;24.192;2023-02-16T01:28:34;96744.97;;;-5.87;85.32
61961;BME280;47923;42.506;24.192;2023-02-16T01:31:01;96715.03;;;-6.16;85.79
61961;BME280;47923;42.506;24.192;2023-02-16T01:33:26;96741.06;;;-5.96;86.44
61961;BME280;47923;42.506;24.192;2023-02-16T01:35:54;96746.63;;;-6.04;86.52
61961;BME280;47923;42.506;24.192;2023-02-16T01:38:23;96646.19;;;-6.61;87.22
61961;BME280;47923;42.506;24.192;2023-02-16T01:41:11;96737.66;;;-6.15;87.75
61961;BME280;47923;42.506;24.192;2023-02-16T01:43:54;96669.41;;;-6.58;87.62
61961;BME280;47923;42.506;24.192;2023-02-16T01:46:27;96725.84;;;-6.24;87.46
61961;BME280;47923;42.506;24.192;2023-02-16T01:48:57;96732.78;;;-6.29;87.17
61961;BME280;47923;42.506;24.192;2023-02-16T01:51:40;96738.28;;;-6.31;87.60
61961;BME280;47923;42.506;24.192;2023-02-16T01:54:53;96731.25;;;-6.37;87.20
61961;BME280;47923;42.506;24.192;2023-02-16T02:02:23;96714.69;;;-6.37;85.21
61961;BME280;47923;42.506;24.192;2023-02-16T02:05:06;96740.16;;;-6.20;85.06
61961;BME280;47923;42.506;24.192;2023-02-16T02:10:40;96644.59;;;-6.80;85.72
61961;BME280;47923;42.506;24.192;2023-02-16T02:13:14;96590.00;;;-7.15;85.56
61961;BME280;47923;42.506;24.192;2023-02-16T02:15:44;96655.06;;;-6.62;85.58
61961;BME280;47923;42.506;24.192;2023-02-16T02:18:09;96730.81;;;-6.16;86.29
61961;BME280;47923;42.506;24.192;2023-02-16T02:23:48;96676.72;;;-6.60;86.72
61961;BME280;47923;42.506;24.192;2023-02-16T02:29:18;96637.72;;;-6.81;85.49
61961;BME280;47923;42.506;24.192;2023-02-16T02:37:36;96637.41;;;-6.91;85.94
61961;BME280;47923;42.506;24.192;2023-02-16T02:45:30;96722.88;;;-6.46;87.10
61961;BME280;47923;42.506;24.192;2023-02-16T02:47:58;96729.00;;;-6.52;87.01
61961;BME280;47923;42.506;24.192;2023-02-16T02:50:37;96719.69;;;-6.54;87.49
61961;BME280;47923;42.506;24.192;2023-02-16T02:53:11;96656.72;;;-6.98;87.10
61961;BME280;47923;42.506;24.192;2023-02-16T02:55:43;96679.78;;;-6.81;87.56
61961;BME280;47923;42.506;24.192;2023-02-16T02:58:31;96704.44;;;-6.64;87.75
61961;BME280;47923;42.506;24.192;2023-02-16T03:01:17;96736.50;;;-6.55;87.09
61961;BME280;47923;42.506;24.192;2023-02-16T03:03:48;96724.84;;;-6.59;86.83
61961;BME280;47923;42.506;24.192;2023-02-16T03:06:25;96652.97;;;-7.08;87.26
61961;BME280;47923;42.506;24.192;2023-02-16T03:08:59;96686.78;;;-6.75;87.98
61961;BME280;47923;42.506;24.192;2023-02-16T03:11:27;96676.53;;;-6.83;87.70
61961;BME280;47923;42.506;24.192;2023-02-16T03:14:31;96663.13;;;-6.93;88.09
61961;BME280;47923;42.506;24.192;2023-02-16T03:17:06;96639.59;;;-7.07;87.42
61961;BME280;47923;42.506;24.192;2023-02-16T03:19:51;96600.69;;;-7.35;86.75
61961;BME280;47923;42.506;24.192;2023-02-16T03:22:36;96721.03;;;-6.63;87.55
61961;BME280;47923;42.506;24.192;2023-02-16T03:25:25;96428.63;;;-8.47;87.29
61961;BME280;47923;42.506;24.192;2023-02-16T03:28:12;96716.34;;;-6.61;87.00
61961;BME280;47923;42.506;24.192;2023-02-16T03:30:57;96717.16;;;-6.61;86.12
61961;BME280;47923;42.506;24.192;2023-02-16T03:33:26;96634.97;;;-7.05;85.20
61961;BME280;47923;42.506;24.192;2023-02-16T03:35:52;96663.63;;;-6.85;85.65
61961;BME280;47923;42.506;24.192;2023-02-16T03:38:18;96524.81;;;-7.80;86.23
61961;BME280;47923;42.506;24.192;2023-02-16T03:40:45;96711.47;;;-6.58;86.02
61961;BME280;47923;42.506;24.192;2023-02-16T03:43:12;96710.72;;;-6.65;86.96
61961;BME280;47923;42.506;24.192;2023-02-16T03:45:40;96688.31;;;-6.86;86.60
61961;BME280;47923;42.506;24.192;2023-02-16T03:48:06;96716.44;;;-6.68;86.59
61961;BME280;47923;42.506;24.192;2023-02-16T03:50:32;96715.47;;;-6.74;86.64
61961;BME280;47923;42.506;24.192;2023-02-16T03:52:58;96723.13;;;-6.72;86.91
61961;BME280;47923;42.506;24.192;2023-02-16T03:55:40;96631.09;;;-7.27;87.16
61961;BME280;47923;42.506;24.192;2023-02-16T03:58:07;96715.47;;;-6.74;87.70
61961;BME280;47923;42.506;24.192;2023-02-16T04:00:34;96711.09;;;-6.80;87.32
61961;BME280;47923;42.506;24.192;2023-02-16T04:03:00;96711.09;;;-6.80;87.27
61961;BME280;47923;42.506;24.192;2023-02-16T04:05:25;96666.09;;;-7.08;86.62
61961;BME280;47923;42.506;24.192;2023-02-16T04:07:51;96559.56;;;-7.84;86.81
61961;BME280;47923;42.506;24.192;2023-02-16T04:10:17;96710.41;;;-6.93;87.20
61961;BME280;47923;42.506;24.192;2023-02-16T04:12:43;96709.84;;;-6.96;86.97
61961;BME280;47923;42.506;24.192;2023-02-16T04:15:13;96705.78;;;-6.98;87.57
61961;BME280;47923;42.506;24.192;2023-02-16T04:17:39;96665.63;;;-7.24;87.26
61961;BME280;47923;42.506;24.192;2023-02-16T04:20:06;96711.00;;;-6.91;87.30
61961;BME280;47923;42.506;24.192;2023-02-16T04:22:32;96645.81;;;-7.19;86.89
61961;BME280;47923;42.506;24.192;2023-02-16T04:24:58;96617.38;;;-7.47;87.28
61961;BME280;47923;42.506;24.192;2023-02-16T04:27:23;96536.50;;;-8.00;87.47
61961;BME280;47923;42.506;24.192;2023-02-16T04:29:49;96704.19;;;-6.99;87.37
61961;BME280;47923;42.506;24.192;2023-02-16T04:32:15;96623.72;;;-7.55;87.27
61961;BME280;47923;42.506;24.192;2023-02-16T04:34:40;96708.28;;;-7.03;87.14
61961;BME280;47923;42.506;24.192;2023-02-16T04:37:06;96665.91;;;-7.32;87.65
61961;BME280;47923;42.506;24.192;2023-02-16T04:39:31;96711.44;;;-6.94;86.91
61961;BME280;47923;42.506;24.192;2023-02-16T04:41:57;96717.72;;;-6.96;86.35
61961;BME280;47923;42.506;24.192;2023-02-16T04:44:22;96724.00;;;-6.97;86.42
61961;BME280;47923;42.506;24.192;2023-02-16T04:46:48;96624.19;;;-7.65;86.08
61961;BME280;47923;42.506;24.192;2023-02-16T04:49:14;96676.19;;;-7.30;85.94
61961;BME280;47923;42.506;24.192;2023-02-16T04:51:39;96714.75;;;-7.06;85.86
61961;BME280;47923;42.506;24.192;2023-02-16T04:54:06;96657.50;;;-7.40;86.35
61961;BME280;47923;42.506;24.192;2023-02-16T04:56:31;96667.00;;;-7.39;86.31
61961;BME280;47923;42.506;24.192;2023-02-16T04:58:56;96680.41;;;-7.29;86.93
61961;BME280;47923;42.506;24.192;2023-02-16T05:01:24;96718.94;;;-6.98;86.49
61961;BME280;47923;42.506;24.192;2023-02-16T05:03:50;96539.50;;;-8.22;86.65
61961;BME280;47923;42.506;24.192;2023-02-16T05:06:16;96476.72;;;-8.67;86.55
61961;BME280;47923;42.506;24.192;2023-02-16T05:08:44;96723.94;;;-7.15;87.15
61961;BME280;47923;42.506;24.192;2023-02-16T05:11:10;96732.78;;;-7.09;87.38
61961;BME280;47923;42.506;24.192;2023-02-16T05:13:58;96685.72;;;-7.36;87.14
61961;BME280;47923;42.506;24.192;2023-02-16T05:16:42;96703.25;;;-7.30;87.57
61961;BME280;47923;42.506;24.192;2023-02-16T05:19:08;96729.34;;;-7.10;87.68
61961;BME280;47923;42.506;24.192;2023-02-16T05:21:33;96733.19;;;-7.12;88.04
61961;BME280;47923;42.506;24.192;2023-02-16T05:24:05;96717.53;;;-7.19;88.39
61961;BME280;47923;42.506;24.192;2023-02-16T05:26:32;96746.63;;;-6.96;87.75
61961;BME280;47923;42.506;24.192;2023-02-16T05:28:58;96740.91;;;-6.92;87.80
61961;BME280;47923;42.506;24.192;2023-02-16T05:31:25;96748.38;;;-6.89;87.98
61961;BME280;47923;42.506;24.192;2023-02-16T05:33:51;96746.50;;;-6.82;87.93
61961;BME280;47923;42.506;24.192;2023-02-16T05:36:16;96520.81;;;-8.32;87.08
61961;BME280;47923;42.506;24.192;2023-02-16T05:38:42;96752.00;;;-6.65;86.70
61961;BME280;47923;42.506;24.192;2023-02-16T05:41:08;96752.88;;;-6.53;86.89
61961;BME280;47923;42.506;24.192;2023-02-16T05:43:34;96708.63;;;-6.75;86.51
61961;BME280;47923;42.506;24.192;2023-02-16T05:46:05;96711.53;;;-6.64;86.32
61961;BME280;47923;42.506;24.192;2023-02-16T05:48:31;96752.00;;;-6.29;85.77
61961;BME280;47923;42.506;24.192;2023-02-16T05:50:56;96720.59;;;-6.42;84.61
61961;BME280;47923;42.506;24.192;2023-02-16T05:53:22;96708.38;;;-6.36;84.49
61961;BME280;47923;42.506;24.192;2023-02-16T05:55:47;96753.06;;;-5.88;84.29
61961;BME280;47923;42.506;24.192;2023-02-16T05:58:13;96564.44;;;-6.89;83.61
61961;BME280;47923;42.506;24.192;2023-02-16T06:00:38;96692.34;;;-5.87;82.84
61961;BME280;47923;42.506;24.192;2023-02-16T06:03:03;96749.50;;;-5.34;82.10
61961;BME280;47923;42.506;24.192;2023-02-16T06:05:29;96749.63;;;-5.17;81.56
61961;BME280;47923;42.506;24.192;2023-02-16T06:07:54;96587.16;;;-6.17;81.38
61961;BME280;47923;42.506;24.192;2023-02-16T06:10:20;96718.38;;;-5.13;81.16
61961;BME280;47923;42.506;24.192;2023-02-16T06:12:45;96675.41;;;-5.25;81.21
61961;BME280;47923;42.506;24.192;2023-02-16T06:15:11;96742.09;;;-4.66;80.98
61961;BME280;47923;42.506;24.192;2023-02-16T06:17:36;96765.38;;;-4.40;80.30
61961;BME280;47923;42.506;24.192;2023-02-16T06:20:03;96770.50;;;-4.22;79.92
61961;BME280;47923;42.506;24.192;2023-02-16T06:22:29;96630.59;;;-5.02;78.91
61961;BME280;47923;42.506;24.192;2023-02-16T06:24:55;96689.34;;;-4.55;78.58
61961;BME280;47923;42.506;24.192;2023-02-16T06:27:20;96725.00;;;-3.26;79.16
61961;BME280;47923;42.506;24.192;2023-02-16T06:29:45;96679.53;;;-0.52;70.47
61961;BME280;47923;42.506;24.192;2023-02-16T06:32:11;96681.31;;;1.93;56.46
61961;BME280;47923;42.506;24.192;2023-02-16T06:34:36;96768.38;;;4.52;49.77
61961;BME280;47923;42.506;24.192;2023-02-16T06:37:02;96657.44;;;5.42;45.66
61961;BME280;47923;42.506;24.192;2023-02-16T06:39:28;96760.63;;;7.10;42.12
61961;BME280;47923;42.506;24.192;2023-02-16T06:41:53;96756.53;;;8.19;40.19
61961;BME280;47923;42.506;24.192;2023-02-16T06:44:19;96752.91;;;8.64;38.17
61961;BME280;47923;42.506;24.192;2023-02-16T06:46:46;96765.66;;;9.15;37.52
61961;BME280;47923;42.506;24.192;2023-02-16T06:49:14;96760.44;;;10.09;34.62
61961;BME280;47923;42.506;24.192;2023-02-16T06:51:41;96727.03;;;9.75;36.07
61961;BME280;47923;42.506;24.192;2023-02-16T07:12:33;96752.78;;;12.65;31.22
61961;BME280;47923;42.506;24.192;2023-02-16T07:14:58;96593.91;;;12.76;30.14
61961;BME280;47923;42.506;24.192;2023-02-16T07:17:24;96706.81;;;13.49;29.49
61961;BME280;47923;42.506;24.192;2023-02-16T07:19:49;96753.13;;;13.68;29.39
61961;BME280;47923;42.506;24.192;2023-02-16T07:22:15;96732.69;;;14.02;29.50
61961;BME280;47923;42.506;24.192;2023-02-16T07:24:41;96694.97;;;13.85;28.86
61961;BME280;47923;42.506;24.192;2023-02-16T07:27:07;96756.56;;;14.25;28.42
61961;BME280;47923;42.506;24.192;2023-02-16T07:29:33;96751.31;;;15.53;27.58
61961;BME280;47923;42.506;24.192;2023-02-16T07:31:58;96705.50;;;15.20;26.65
61961;BME280;47923;42.506;24.192;2023-02-16T07:34:24;96722.66;;;15.79;26.88
61961;BME280;47923;42.506;24.192;2023-02-16T07:36:50;96749.03;;;15.94;25.62
61961;BME280;47923;42.506;24.192;2023-02-16T07:39:15;96712.75;;;15.32;27.16
61961;BME280;47923;42.506;24.192;2023-02-16T07:41:41;96683.09;;;15.46;26.85
61961;BME280;47923;42.506;24.192;2023-02-16T07:44:06;96688.50;;;16.08;25.23
61961;BME280;47923;42.506;24.192;2023-02-16T07:46:32;96712.63;;;15.63;26.07
61961;BME280;47923;42.506;24.192;2023-02-16T07:48:57;96642.34;;;15.11;26.67
61961;BME280;47923;42.506;24.192;2023-02-16T07:51:29;96727.94;;;15.91;26.06
61961;BME280;47923;42.506;24.192;2023-02-16T07:53:55;96723.81;;;17.26;25.35
61961;BME280;47923;42.506;24.192;2023-02-16T07:56:23;96739.13;;;17.98;23.94
61961;BME280;47923;42.506;24.192;2023-02-16T07:58:57;96705.00;;;17.84;23.49
61961;BME280;47923;42.506;24.192;2023-02-16T08:01:24;96733.25;;;17.95;23.87
61961;BME280;47923;42.506;24.192;2023-02-16T08:03:50;96705.00;;;17.84;24.17
61961;BME280;47923;42.506;24.192;2023-02-16T08:06:16;96724.44;;;17.76;24.72
61961;BME280;47923;42.506;24.192;2023-02-16T08:08:42;96735.75;;;17.74;24.09
61961;BME280;47923;42.506;24.192;2023-02-16T08:11:18;96723.84;;;18.34;24.53
61961;BME280;47923;42.506;24.192;2023-02-16T08:13:44;96733.56;;;18.68;23.96
61961;BME280;47923;42.506;24.192;2023-02-16T08:16:18;96666.94;;;18.06;24.68
61961;BME280;47923;42.506;24.192;2023-02-16T08:18:44;96722.28;;;18.29;24.60
61961;BME280;47923;42.506;24.192;2023-02-16T08:21:14;96717.19;;;18.79;24.40
61961;BME280;47923;42.506;24.192;2023-02-16T08:23:45;96661.72;;;18.34;23.96
61961;BME280;47923;42.506;24.192;2023-02-16T08:26:16;96729.84;;;19.81;23.70
61961;BME280;47923;42.506;24.192;2023-02-16T08:28:43;96707.16;;;19.84;22.18
61961;BME280;47923;42.506;24.192;2023-02-16T08:31:20;96427.94;;;17.48;22.37
61961;BME280;47923;42.506;24.192;2023-02-16T08:33:48;96605.28;;;19.90;20.99
61961;BME280;47923;42.506;24.192;2023-02-16T08:36:25;96724.03;;;21.18;20.24
61961;BME280;47923;42.506;24.192;2023-02-16T08:38:53;96721.56;;;21.56;21.54
61961;BME280;47923;42.506;24.192;2023-02-16T08:41:21;96656.47;;;21.39;19.97
61961;BME280;47923;42.506;24.192;2023-02-16T08:43:48;96708.34;;;21.15;20.81
61961;BME280;47923;42.506;24.192;2023-02-16T08:46:14;96715.25;;;22.36;20.11
61961;BME280;47923;42.506;24.192;2023-02-16T08:48:40;96717.41;;;22.63;19.23
61961;BME280;47923;42.506;24.192;2023-02-16T08:51:06;96586.31;;;21.09;19.77
61961;BME280;47923;42.506;24.192;2023-02-16T08:53:33;96719.47;;;21.89;19.73
61961;BME280;47923;42.506;24.192;2023-02-16T08:56:00;96712.59;;;21.45;19.87
61961;BME280;47923;42.506;24.192;2023-02-16T08:58:28;96705.88;;;21.53;20.27
61961;BME280;47923;42.506;24.192;2023-02-16T09:00:54;96703.53;;;21.44;20.18
61961;BME280;47923;42.506;24.192;2023-02-16T09:03:20;96638.44;;;21.23;20.62
61961;BME280;47923;42.506;24.192;2023-02-16T09:05:47;96704.31;;;22.74;18.85
61961;BME280;47923;42.506;24.192;2023-02-16T09:08:14;96691.16;;;22.96;18.49
61961;BME280;47923;42.506;24.192;2023-02-16T09:10:41;96668.03;;;23.20;18.01
61961;BME280;47923;42.506;24.192;2023-02-16T09:13:07;96706.63;;;23.58;17.56
61961;BME280;47923;42.506;24.192;2023-02-16T09:15:42;96685.72;;;22.85;18.14
61961;BME280;47923;42.506;24.192;2023-02-16T09:18:12;96676.97;;;21.97;19.08
61961;BME280;47923;42.506;24.192;2023-02-16T09:20:42;96668.63;;;21.45;19.42
61961;BME280;47923;42.506;24.192;2023-02-16T09:23:09;96709.97;;;20.81;20.26
61961;BME280;47923;42.506;24.192;2023-02-16T09:25:38;96704.28;;;23.19;18.62
61961;BME280;47923;42.506;24.192;2023-02-16T09:28:04;96708.66;;;21.46;19.76
61961;BME280;47923;42.506;24.192;2023-02-16T09:30:31;96610.34;;;22.23;18.70
61961;BME280;47923;42.506;24.192;2023-02-16T09:33:00;96611.50;;;21.70;18.75
61961;BME280;47923;42.506;24.192;2023-02-16T09:35:26;96700.09;;;22.06;19.31
61961;BME280;47923;42.506;24.192;2023-02-16T09:37:51;96695.56;;;22.41;19.97
61961;BME280;47923;42.506;24.192;2023-02-16T09:40:18;96701.41;;;21.80;19.93
61961;BME280;47923;42.506;24.192;2023-02-16T09:45:30;96660.66;;;21.68;19.48
61961;BME280;47923;42.506;24.192;2023-02-16T09:47:59;96686.78;;;21.10;20.06
61961;BME280;47923;42.506;24.192;2023-02-16T09:50:31;96619.97;;;21.38;20.48
61961;BME280;47923;42.506;24.192;2023-02-16T09:53:05;96662.34;;;22.14;19.32
61961;BME280;47923;42.506;24.192;2023-02-16T09:55:53;96676.88;;;21.27;19.79
61961;BME280;47923;42.506;24.192;2023-02-16T09:59:23;96681.41;;;22.39;19.17
61961;BME280;47923;42.506;24.192;2023-02-16T10:01:43;96678.13;;;24.22;18.05
61961;BME280;47923;42.506;24.192;2023-02-16T10:04:23;96670.38;;;22.84;18.14
61961;BME280;47923;42.506;24.192;2023-02-16T10:09:53;96582.56;;;22.93;17.99
61961;BME280;47923;42.506;24.192;2023-02-16T10:12:25;96618.81;;;24.07;17.62
61961;BME280;47923;42.506;24.192;2023-02-16T10:14:53;96590.09;;;24.27;16.92
61961;BME280;47923;42.506;24.192;2023-02-16T10:20:32;96655.00;;;20.98;19.77
61961;BME280;47923;42.506;24.192;2023-02-16T10:23:09;96538.56;;;21.55;18.62
61961;BME280;47923;42.506;24.192;2023-02-16T10:28:27;96641.88;;;21.52;19.25
61961;BME280;47923;42.506;24.192;2023-02-16T10:31:11;96648.91;;;21.61;19.42
61961;BME280;47923;42.506;24.192;2023-02-16T10:39:28;96640.41;;;22.00;18.40
61961;BME280;47923;42.506;24.192;2023-02-16T10:42:04;96433.22;;;20.29;19.20
61961;BME280;47923;42.506;24.192;2023-02-16T10:44:38;96432.97;;;19.56;19.53
61961;BME280;47923;42.506;24.192;2023-02-16T10:47:08;96590.00;;;20.35;19.59
61961;BME280;47923;42.506;24.192;2023-02-16T10:49:37;96600.91;;;20.88;19.36
61961;BME280;47923;42.506;24.192;2023-02-16T10:52:03;96630.13;;;22.56;18.37
61961;BME280;47923;42.506;24.192;2023-02-16T10:54:32;96623.34;;;22.23;18.48
61961;BME280;47923;42.506;24.192;2023-02-16T10:57:02;96551.25;;;21.38;19.01
61961;BME280;47923;42.506;24.192;2023-02-16T10:59:42;96621.72;;;20.79;19.18
61961;BME280;47923;42.506;24.192;2023-02-16T11:02:26;96618.25;;;21.59;18.51
61961;BME280;47923;42.506;24.192;2023-02-16T11:04:55;96613.94;;;21.58;18.43
61961;BME280;47923;42.506;24.192;2023-02-16T11:07:27;96478.06;;;20.92;19.21
61961;BME280;47923;42.506;24.192;2023-02-16T11:09:55;96392.25;;;19.65;19.23
61961;BME280;47923;42.506;24.192;2023-02-16T11:12:33;96618.59;;;19.63;20.56
61961;BME280;47923;42.506;24.192;2023-02-16T11:15:23;96519.03;;;19.19;21.25
61961;BME280;47923;42.506;24.192;2023-02-16T11:17:58;96564.91;;;20.26;20.21
61961;BME280;47923;42.506;24.192;2023-02-16T11:20:32;96593.09;;;20.73;20.03
61961;BME280;47923;42.506;24.192;2023-02-16T11:25:52;96493.63;;;19.26;20.93
61961;BME280;47923;42.506;24.192;2023-02-16T11:28:25;96524.16;;;20.35;20.95
61961;BME280;47923;42.506;24.192;2023-02-16T11:31:39;96497.16;;;20.01;21.07
61961;BME280;47923;42.506;24.192;2023-02-16T11:34:00;96574.34;;;20.28;21.43
61961;BME280;47923;42.506;24.192;2023-02-16T11:36:44;96580.88;;;20.95;21.05
61961;BME280;47923;42.506;24.192;2023-02-16T11:41:53;96568.88;;;20.07;21.12
61961;BME280;47923;42.506;24.192;2023-02-16T11:44:31;96406.28;;;18.71;21.95
61961;BME280;47923;42.506;24.192;2023-02-16T11:46:58;96566.50;;;20.02;21.51
61961;BME280;47923;42.506;24.192;2023-02-16T11:49:36;96522.25;;;19.64;22.07
61961;BME280;47923;42.506;24.192;2023-02-16T11:54:48;96565.22;;;17.82;24.23
61961;BME280;47923;42.506;24.192;2023-02-16T11:57:25;96564.63;;;17.22;25.13
61961;BME280;47923;42.506;24.192;2023-02-16T11:59:53;96569.19;;;16.50;26.53
61961;BME280;47923;42.506;24.192;2023-02-16T12:13:16;96550.72;;;14.06;29.47
61961;BME280;47923;42.506;24.192;2023-02-16T12:15:48;96541.06;;;13.58;30.44
61961;BME280;47923;42.506;24.192;2023-02-16T12:21:24;96478.13;;;12.21;31.61
61961;BME280;47923;42.506;24.192;2023-02-16T12:25:23;96541.16;;;13.02;31.04
61961;BME280;47923;42.506;24.192;2023-02-16T12:27:19;96503.09;;;12.98;30.61
61961;BME280;47923;42.506;24.192;2023-02-16T12:29:57;96538.09;;;13.03;31.97
61961;BME280;47923;42.506;24.192;2023-02-16T12:32:48;96539.88;;;12.83;31.99
61961;BME280;47923;42.506;24.192;2023-02-16T12:43:45;96530.66;;;12.44;33.16
61961;BME280;47923;42.506;24.192;2023-02-16T12:46:23;96519.84;;;12.32;33.39
61961;BME280;47923;42.506;24.192;2023-02-16T12:49:25;96521.75;;;11.91;34.39
61961;BME280;47923;42.506;24.192;2023-02-16T12:51:51;96524.66;;;11.25;35.59
61961;BME280;47923;42.506;24.192;2023-02-16T12:54:29;96488.81;;;10.70;36.42
61961;BME280;47923;42.506;24.192;2023-02-16T12:57:06;96525.50;;;10.59;36.51
61961;BME280;47923;42.506;24.192;2023-02-16T12:59:42;96426.25;;;9.93;37.26
61961;BME280;47923;42.506;24.192;2023-02-16T13:02:25;96520.63;;;10.52;37.71
61961;BME280;47923;42.506;24.192;2023-02-16T13:05:00;96471.72;;;10.04;37.30
61961;BME280;47923;42.506;24.192;2023-02-16T13:07:35;96508.59;;;10.29;38.14
61961;BME280;47923;42.506;24.192;2023-02-16T13:13:16;96529.41;;;10.20;38.03
61961;BME280;47923;42.506;24.192;2023-02-16T13:15:54;96482.16;;;10.14;37.70
61961;BME280;47923;42.506;24.192;2023-02-16T13:18:29;96506.06;;;10.45;37.87
61961;BME280;47923;42.506;24.192;2023-02-16T13:21:02;96508.16;;;10.60;37.53
61961;BME280;47923;42.506;24.192;2023-02-16T13:31:52;96494.06;;;10.34;38.36
61961;BME280;47923;42.506;24.192;2023-02-16T13:42:53;96484.47;;;10.24;38.93
61961;BME280;47923;42.506;24.192;2023-02-16T13:45:28;96436.34;;;9.84;38.47
61961;BME280;47923;42.506;24.192;2023-02-16T13:47:56;96457.06;;;9.92;38.95
61961;BME280;47923;42.506;24.192;2023-02-16T13:52:52;96479.00;;;10.33;38.34
61961;BME280;47923;42.506;24.192;2023-02-16T13:55:29;96275.63;;;8.91;39.16
61961;BME280;47923;42.506;24.192;2023-02-16T14:00:29;96485.53;;;10.32;38.79
61961;BME280;47923;42.506;24.192;2023-02-16T14:03:01;96491.78;;;10.23;38.83
61961;BME280;47923;42.506;24.192;2023-02-16T14:05:30;96465.44;;;10.00;39.08
61961;BME280;47923;42.506;24.192;2023-02-16T14:15:52;96413.41;;;9.49;39.64
61961;BME280;47923;42.506;24.192;2023-02-16T14:18:48;96479.91;;;9.95;39.67
61961;BME280;47923;42.506;24.192;2023-02-16T14:21:36;96477.00;;;10.00;39.79
61961;BME280;47923;42.506;24.192;2023-02-16T14:24:03;96461.59;;;9.80;40.20
61961;BME280;47923;42.506;24.192;2023-02-16T14:26:33;96418.75;;;9.57;40.33
61961;BME280;47923;42.506;24.192;2023-02-16T14:29:23;96445.19;;;9.64;40.12
61961;BME280;47923;42.506;24.192;2023-02-16T14:34:53;96376.66;;;9.14;40.69
61961;BME280;47923;42.506;24.192;2023-02-16T14:37:27;96477.44;;;9.81;39.63
61961;BME280;47923;42.506;24.192;2023-02-16T14:39:54;96468.75;;;9.76;40.39
61961;BME280;47923;42.506;24.192;2023-02-16T14:42:33;96472.19;;;9.64;40.43
61961;BME280;47923;42.506;24.192;2023-02-16T14:54:04;96471.47;;;9.46;41.46
61961;BME280;47923;42.506;24.192;2023-02-16T14:56:46;96471.97;;;9.39;41.37
61961;BME280;47923;42.506;24.192;2023-02-16T15:01:43;96473.03;;;9.26;41.30
61961;BME280;47923;42.506;24.192;2023-02-16T15:04:10;96410.41;;;8.82;41.85
61961;BME280;47923;42.506;24.192;2023-02-16T15:06:44;96475.59;;;9.14;41.52
61961;BME280;47923;42.506;24.192;2023-02-16T15:09:16;96480.88;;;9.02;42.34
61961;BME280;47923;42.506;24.192;2023-02-16T15:12:03;96444.88;;;8.68;42.51
61961;BME280;47923;42.506;24.192;2023-02-16T15:14:48;96475.69;;;8.88;42.59
61961;BME280;47923;42.506;24.192;2023-02-16T15:17:44;96389.19;;;8.17;43.21
61961;BME280;47923;42.506;24.192;2023-02-16T15:20:28;96494.63;;;8.62;43.13
61961;BME280;47923;42.506;24.192;2023-02-16T15:22:57;96484.16;;;8.52;43.77
61961;BME280;47923;42.506;24.192;2023-02-16T15:25:27;96482.16;;;8.40;43.68
61961;BME280;47923;42.506;24.192;2023-02-16T15:28:19;96482.13;;;8.31;43.82
61961;BME280;47923;42.506;24.192;2023-02-16T15:30:52;96431.63;;;7.76;44.18